createdAt,value
2019-05-16T00:00:12.520Z,1019.07
2019-05-16T00:01:12.576Z,1019.03
2019-05-16T00:02:12.512Z,1019.02
2019-05-16T00:03:12.559Z,1019.05
2019-05-16T00:04:12.473Z,1019.02
2019-05-16T00:05:12.571Z,1019.08
2019-05-16T00:06:12.477Z,1019.03
2019-05-16T00:07:12.452Z,1019.00
2019-05-16T00:08:13.233Z,1019.01
2019-05-16T00:09:12.424Z,1018.97
2019-05-16T00:10:12.409Z,1018.99
2019-05-16T00:11:12.438Z,1019.05
2019-05-16T00:12:12.390Z,1018.98
2019-05-16T00:13:12.421Z,1018.96
2019-05-16T00:14:12.376Z,1018.96
2019-05-16T00:15:13.463Z,1019.00
2019-05-16T00:16:12.364Z,1018.98
2019-05-16T00:17:20.339Z,1018.95
2019-05-16T00:18:12.323Z,1018.97
2019-05-16T00:19:19.865Z,1019.03
2019-05-16T00:20:12.314Z,1019.02
2019-05-16T00:21:13.330Z,1019.05
2019-05-16T00:22:12.279Z,1019.01
2019-05-16T00:23:12.294Z,1019.03
2019-05-16T00:24:12.258Z,1018.98
2019-05-16T00:25:12.301Z,1019.00
2019-05-16T00:26:12.259Z,1018.99
2019-05-16T00:27:12.315Z,1018.99
2019-05-16T00:28:12.218Z,1018.98
2019-05-16T00:29:12.227Z,1019.01
2019-05-16T00:30:12.193Z,1019.00
2019-05-16T00:31:12.276Z,1018.99
2019-05-16T00:32:12.175Z,1019.00
2019-05-16T00:33:12.309Z,1018.97
2019-05-16T00:34:12.157Z,1019.00
2019-05-16T00:35:12.163Z,1018.99
2019-05-16T00:36:12.142Z,1018.92
2019-05-16T00:37:12.177Z,1018.94
2019-05-16T00:38:12.134Z,1018.98
2019-05-16T00:39:12.192Z,1018.92
2019-05-16T00:40:12.086Z,1018.92
2019-05-16T00:41:12.133Z,1018.96
2019-05-16T00:42:12.071Z,1018.92
2019-05-16T00:43:12.113Z,1018.92
2019-05-16T00:44:12.043Z,1018.89
2019-05-16T00:45:13.487Z,1018.90
2019-05-16T00:46:12.023Z,1018.84
2019-05-16T00:47:12.071Z,1018.81
2019-05-16T00:48:12.007Z,1018.83
2019-05-16T00:49:12.057Z,1018.79
2019-05-16T00:50:11.978Z,1018.80
2019-05-16T00:51:12.067Z,1018.78
2019-05-16T00:52:11.971Z,1018.78
2019-05-16T00:53:11.978Z,1018.77
2019-05-16T00:54:11.938Z,1018.75
2019-05-16T00:55:11.997Z,1018.72
2019-05-16T00:56:11.913Z,1018.71
2019-05-16T00:57:11.933Z,1018.69
2019-05-16T00:58:11.904Z,1018.72
2019-05-16T00:59:11.895Z,1018.70
2019-05-16T01:00:11.877Z,1018.75
2019-05-16T01:01:12.953Z,1018.74
2019-05-16T01:02:12.256Z,1018.72
2019-05-16T01:03:29.161Z,1018.72
2019-05-16T01:04:11.824Z,1018.75
2019-05-16T01:05:14.565Z,1018.71
2019-05-16T01:06:19.178Z,1018.72
2019-05-16T01:07:12.813Z,1018.75
2019-05-16T01:08:11.789Z,1018.71
2019-05-16T01:09:11.771Z,1018.69
2019-05-16T01:10:11.786Z,1018.70
2019-05-16T01:11:11.753Z,1018.69
2019-05-16T01:12:11.831Z,1018.72
2019-05-16T01:13:11.727Z,1018.66
2019-05-16T01:14:11.816Z,1018.65
2019-05-16T01:15:11.712Z,1018.63
2019-05-16T01:16:11.726Z,1018.66
2019-05-16T01:17:11.696Z,1018.62
2019-05-16T01:18:11.739Z,1018.62
2019-05-16T01:19:11.668Z,1018.66
2019-05-16T01:20:11.755Z,1018.64
2019-05-16T01:21:11.644Z,1018.65
2019-05-16T01:22:11.701Z,1018.68
2019-05-16T01:23:11.632Z,1018.72
2019-05-16T01:24:11.678Z,1018.69
2019-05-16T01:25:11.615Z,1018.67
2019-05-16T01:26:11.691Z,1018.67
2019-05-16T01:27:11.592Z,1018.68
2019-05-16T01:28:11.604Z,1018.66
2019-05-16T01:29:11.891Z,1018.70
2019-05-16T01:30:11.617Z,1018.59
2019-05-16T01:31:11.529Z,1018.57
2019-05-16T01:32:11.559Z,1018.63
2019-05-16T01:33:11.524Z,1018.66
2019-05-16T01:34:11.543Z,1018.58
2019-05-16T01:35:11.487Z,1018.58
2019-05-16T01:36:11.559Z,1018.55
2019-05-16T01:37:11.485Z,1018.57
2019-05-16T01:38:11.469Z,1018.57
2019-05-16T01:39:11.448Z,1018.57
2019-05-16T01:40:11.481Z,1018.57
2019-05-16T01:41:11.421Z,1018.61
2019-05-16T01:42:11.432Z,1018.53
2019-05-16T01:43:11.398Z,1018.54
2019-05-16T01:44:11.406Z,1018.51
2019-05-16T01:45:11.379Z,1018.51
2019-05-16T01:46:11.421Z,1018.53
2019-05-16T01:47:11.369Z,1018.46
2019-05-16T01:48:14.767Z,1018.44
2019-05-16T01:49:11.341Z,1018.42
2019-05-16T01:50:11.345Z,1018.42
2019-05-16T01:51:11.320Z,1018.33
2019-05-16T01:52:12.416Z,1018.38
2019-05-16T01:53:11.296Z,1018.38
2019-05-16T01:54:12.295Z,1018.38
2019-05-16T01:55:11.267Z,1018.33
2019-05-16T01:56:11.286Z,1018.35
2019-05-16T01:57:11.260Z,1018.31
2019-05-16T01:58:11.298Z,1018.34
2019-05-16T01:59:11.224Z,1018.31
2019-05-16T02:00:11.322Z,1018.29
2019-05-16T02:01:15.758Z,1018.24
2019-05-16T02:02:11.227Z,1018.21
2019-05-16T02:03:11.187Z,1018.23
2019-05-16T02:04:12.347Z,1018.20
2019-05-16T02:05:11.159Z,1018.23
2019-05-16T02:06:11.256Z,1018.12
2019-05-16T02:07:12.221Z,1018.16
2019-05-16T02:08:11.193Z,1018.14
2019-05-16T02:09:11.483Z,1018.15
2019-05-16T02:10:11.174Z,1018.11
2019-05-16T02:11:11.090Z,1018.14
2019-05-16T02:12:11.084Z,1018.12
2019-05-16T02:13:11.089Z,1018.11
2019-05-16T02:14:11.100Z,1018.09
2019-05-16T02:15:11.049Z,1018.07
2019-05-16T02:16:11.113Z,1018.10
2019-05-16T02:17:11.386Z,1018.06
2019-05-16T02:18:11.069Z,1018.07
2019-05-16T02:19:11.006Z,1018.07
2019-05-16T02:20:11.038Z,1018.02
2019-05-16T02:21:10.985Z,1018.07
2019-05-16T02:22:11.053Z,1018.03
2019-05-16T02:23:10.978Z,1018.02
2019-05-16T02:24:10.965Z,1018.04
2019-05-16T02:25:10.946Z,1018.05
2019-05-16T02:26:10.977Z,1018.03
2019-05-16T02:27:10.923Z,1018.05
2019-05-16T02:28:11.024Z,1018.03
2019-05-16T02:29:13.719Z,1018.01
2019-05-16T02:30:12.377Z,1017.99
2019-05-16T02:31:12.026Z,1018.02
2019-05-16T02:32:12.970Z,1017.98
2019-05-16T02:33:11.599Z,1018.04
2019-05-16T02:34:12.212Z,1017.99
2019-05-16T02:35:11.957Z,1017.96
2019-05-16T02:36:11.163Z,1017.97
2019-05-16T02:37:23.822Z,1018.00
2019-05-16T02:38:11.812Z,1017.95
2019-05-16T02:39:12.807Z,1017.93
2019-05-16T02:40:11.898Z,1017.89
2019-05-16T02:41:10.790Z,1017.93
2019-05-16T02:42:11.992Z,1017.86
2019-05-16T02:43:12.528Z,1017.91
2019-05-16T02:44:12.049Z,1017.89
2019-05-16T02:45:11.198Z,1017.92
2019-05-16T02:46:11.953Z,1017.94
2019-05-16T02:47:11.114Z,1017.88
2019-05-16T02:48:11.151Z,1017.89
2019-05-16T02:49:11.594Z,1017.90
2019-05-16T02:50:12.386Z,1017.90
2019-05-16T02:51:11.154Z,1017.91
2019-05-16T02:52:11.035Z,1017.91
2019-05-16T02:53:12.779Z,1017.95
2019-05-16T02:54:11.139Z,1017.96
2019-05-16T02:55:11.590Z,1017.93
2019-05-16T02:56:12.125Z,1017.96
2019-05-16T02:57:11.478Z,1017.94
2019-05-16T02:58:11.454Z,1017.93
2019-05-16T02:59:11.877Z,1017.94
2019-05-16T03:00:12.121Z,1017.92
2019-05-16T03:01:11.060Z,1017.86
2019-05-16T03:02:11.371Z,1017.90
2019-05-16T03:03:11.996Z,1017.89
2019-05-16T03:04:11.199Z,1017.90
2019-05-16T03:05:12.078Z,1017.92
2019-05-16T03:06:11.195Z,1017.93
2019-05-16T03:07:13.500Z,1017.82
2019-05-16T03:08:12.238Z,1017.84
2019-05-16T03:09:11.554Z,1017.90
2019-05-16T03:10:11.080Z,1017.83
2019-05-16T03:11:11.900Z,1017.79
2019-05-16T03:12:10.810Z,1017.72
2019-05-16T03:13:11.332Z,1017.74
2019-05-16T03:14:11.182Z,1017.70
2019-05-16T03:15:11.037Z,1017.71
2019-05-16T03:16:11.711Z,1017.76
2019-05-16T03:17:12.478Z,1017.69
2019-05-16T03:18:11.480Z,1017.64
2019-05-16T03:19:11.519Z,1017.67
2019-05-16T03:20:11.723Z,1017.66
2019-05-16T03:21:11.174Z,1017.64
2019-05-16T03:22:11.668Z,1017.62
2019-05-16T03:23:11.556Z,1017.60
2019-05-16T03:24:11.244Z,1017.62
2019-05-16T03:25:12.311Z,1017.59
2019-05-16T03:26:11.888Z,1017.63
2019-05-16T03:27:10.849Z,1017.58
2019-05-16T03:28:11.268Z,1017.57
2019-05-16T03:29:11.323Z,1017.58
2019-05-16T03:30:15.377Z,1017.60
2019-05-16T03:31:15.128Z,1017.56
2019-05-16T03:32:14.046Z,1017.51
2019-05-16T03:33:19.056Z,1017.55
2019-05-16T03:34:16.173Z,1017.54
2019-05-16T03:35:15.508Z,1017.56
2019-05-16T03:36:14.848Z,1017.50
2019-05-16T03:37:14.305Z,1017.54
2019-05-16T03:38:12.093Z,1017.55
2019-05-16T03:39:10.816Z,1017.48
2019-05-16T03:40:11.047Z,1017.51
2019-05-16T03:41:11.513Z,1017.50
2019-05-16T03:42:12.709Z,1017.47
2019-05-16T03:43:11.581Z,1017.52
2019-05-16T03:44:11.316Z,1017.45
2019-05-16T03:45:10.846Z,1017.44
2019-05-16T03:46:11.874Z,1017.45
2019-05-16T03:47:11.184Z,1017.41
2019-05-16T03:48:11.985Z,1017.46
2019-05-16T03:49:11.325Z,1017.36
2019-05-16T03:50:11.141Z,1017.43
2019-05-16T03:51:11.269Z,1017.45
2019-05-16T03:52:11.326Z,1017.43
2019-05-16T03:53:11.698Z,1017.41
2019-05-16T03:54:12.342Z,1017.41
2019-05-16T03:55:11.065Z,1017.42
2019-05-16T03:56:11.174Z,1017.39
2019-05-16T03:57:11.531Z,1017.41
2019-05-16T03:58:11.623Z,1017.42
2019-05-16T03:59:10.931Z,1017.39
2019-05-16T04:00:11.860Z,1017.34
2019-05-16T04:01:11.181Z,1017.42
2019-05-16T04:02:10.825Z,1017.33
2019-05-16T04:03:16.868Z,1017.35
2019-05-16T04:04:11.675Z,1017.29
2019-05-16T04:05:11.425Z,1017.29
2019-05-16T04:06:11.978Z,1017.29
2019-05-16T04:07:10.946Z,1017.25
2019-05-16T04:08:18.610Z,1017.31
2019-05-16T04:09:12.203Z,1017.27
2019-05-16T04:10:10.941Z,1017.26
2019-05-16T04:11:11.742Z,1017.25
2019-05-16T04:12:11.011Z,1017.21
2019-05-16T04:13:11.512Z,1017.21
2019-05-16T04:14:10.846Z,1017.20
2019-05-16T04:15:11.421Z,1017.20
2019-05-16T04:16:11.853Z,1017.18
2019-05-16T04:17:10.915Z,1017.19
2019-05-16T04:18:11.117Z,1017.21
2019-05-16T04:19:11.491Z,1017.19
2019-05-16T04:20:11.530Z,1017.15
2019-05-16T04:21:11.799Z,1017.17
2019-05-16T04:22:10.490Z,1017.21
2019-05-16T04:23:11.235Z,1017.15
2019-05-16T04:24:12.166Z,1017.14
2019-05-16T04:25:11.297Z,1017.13
2019-05-16T04:26:11.336Z,1017.10
2019-05-16T04:27:11.978Z,1017.14
2019-05-16T04:28:11.595Z,1017.13
2019-05-16T04:29:11.890Z,1017.15
2019-05-16T04:30:11.803Z,1017.15
2019-05-16T04:31:10.947Z,1017.16
2019-05-16T04:32:10.998Z,1017.12
2019-05-16T04:33:10.896Z,1017.15
2019-05-16T04:34:11.689Z,1017.18
2019-05-16T04:35:11.281Z,1017.11
2019-05-16T04:36:11.053Z,1017.14
2019-05-16T04:37:11.511Z,1017.19
2019-05-16T04:38:13.081Z,1017.16
2019-05-16T04:39:11.825Z,1017.18
2019-05-16T04:40:12.073Z,1017.18
2019-05-16T04:41:11.601Z,1017.21
2019-05-16T04:42:11.037Z,1017.17
2019-05-16T04:43:11.387Z,1017.11
2019-05-16T04:44:11.559Z,1017.09
2019-05-16T04:45:11.873Z,1017.14
2019-05-16T04:46:11.645Z,1017.10
2019-05-16T04:47:11.019Z,1017.15
2019-05-16T04:48:16.355Z,1017.19
2019-05-16T04:49:11.167Z,1017.15
2019-05-16T04:50:14.864Z,1017.12
2019-05-16T04:51:10.565Z,1017.12
2019-05-16T04:52:11.191Z,1017.18
2019-05-16T04:53:11.476Z,1017.11
2019-05-16T04:54:11.438Z,1017.14
2019-05-16T04:55:11.851Z,1017.11
2019-05-16T04:56:11.087Z,1017.14
2019-05-16T04:57:11.832Z,1017.06
2019-05-16T04:58:10.703Z,1017.06
2019-05-16T04:59:15.921Z,1017.06
2019-05-16T05:00:11.172Z,1017.10
2019-05-16T05:01:11.113Z,1017.05
2019-05-16T05:02:12.104Z,1017.06
2019-05-16T05:03:11.945Z,1017.07
2019-05-16T05:04:14.429Z,1017.10
2019-05-16T05:05:12.532Z,1017.09
2019-05-16T05:06:11.321Z,1017.11
2019-05-16T05:07:11.134Z,1017.04
2019-05-16T05:08:10.825Z,1017.10
2019-05-16T05:09:11.725Z,1017.07
2019-05-16T05:10:11.322Z,1017.07
2019-05-16T05:11:10.683Z,1017.07
2019-05-16T05:12:11.355Z,1017.05
2019-05-16T05:13:10.993Z,1017.11
2019-05-16T05:14:10.437Z,1017.09
2019-05-16T05:15:11.157Z,1017.12
2019-05-16T05:16:10.630Z,1017.08
2019-05-16T05:17:10.697Z,1017.10
2019-05-16T05:18:10.203Z,1017.09
2019-05-16T05:19:10.886Z,1017.07
2019-05-16T05:20:10.678Z,1017.10
2019-05-16T05:21:11.597Z,1017.12
2019-05-16T05:22:10.482Z,1017.14
2019-05-16T05:23:09.882Z,1017.11
2019-05-16T05:24:10.897Z,1017.11
2019-05-16T05:25:10.864Z,1017.24
2019-05-16T05:26:10.775Z,1017.21
2019-05-16T05:27:10.501Z,1017.22
2019-05-16T05:28:10.062Z,1017.20
2019-05-16T05:29:10.343Z,1017.14
2019-05-16T05:30:10.571Z,1017.17
2019-05-16T05:31:10.882Z,1017.16
2019-05-16T05:32:14.022Z,1017.22
2019-05-16T05:33:10.195Z,1017.16
2019-05-16T05:34:10.604Z,1017.18
2019-05-16T05:35:10.544Z,1017.20
2019-05-16T05:36:12.444Z,1017.15
2019-05-16T05:37:12.566Z,1017.21
2019-05-16T05:38:10.537Z,1017.17
2019-05-16T05:39:12.982Z,1017.16
2019-05-16T05:40:11.012Z,1017.18
2019-05-16T05:41:10.784Z,1017.08
2019-05-16T05:42:10.505Z,1017.15
2019-05-16T05:43:10.597Z,1017.16
2019-05-16T05:44:10.679Z,1017.18
2019-05-16T05:45:11.014Z,1017.16
2019-05-16T05:46:10.962Z,1017.16
2019-05-16T05:47:10.760Z,1017.20
2019-05-16T05:48:10.667Z,1017.21
2019-05-16T05:49:10.525Z,1017.17
2019-05-16T05:50:10.855Z,1017.09
2019-05-16T05:51:11.086Z,1017.12
2019-05-16T05:52:11.739Z,1017.12
2019-05-16T05:53:10.234Z,1017.14
2019-05-16T05:54:10.926Z,1017.22
2019-05-16T05:55:10.574Z,1017.15
2019-05-16T05:56:11.264Z,1017.17
2019-05-16T05:57:09.915Z,1017.12
2019-05-16T05:58:10.092Z,1017.18
2019-05-16T05:59:11.378Z,1017.09
2019-05-16T06:00:09.928Z,1017.10
2019-05-16T06:01:10.888Z,1017.08
2019-05-16T06:02:11.162Z,1017.09
2019-05-16T06:03:10.553Z,1017.08
2019-05-16T06:04:10.583Z,1017.03
2019-05-16T06:05:10.604Z,1017.09
2019-05-16T06:06:10.559Z,1017.08
2019-05-16T06:07:10.146Z,1017.06
2019-05-16T06:08:10.545Z,1016.98
2019-05-16T06:09:18.291Z,1017.08
2019-05-16T06:10:10.674Z,1017.07
2019-05-16T06:11:10.004Z,1017.04
2019-05-16T06:12:10.492Z,1016.97
2019-05-16T06:13:10.952Z,1016.94
2019-05-16T06:14:09.844Z,1017.03
2019-05-16T06:15:10.061Z,1017.01
2019-05-16T06:16:10.580Z,1016.99
2019-05-16T06:17:11.282Z,1017.01
2019-05-16T06:18:10.649Z,1017.00
2019-05-16T06:19:10.937Z,1016.98
2019-05-16T06:20:14.051Z,1016.99
2019-05-16T06:21:11.475Z,1016.99
2019-05-16T06:22:10.221Z,1017.01
2019-05-16T06:23:10.645Z,1016.93
2019-05-16T06:24:10.569Z,1016.90
2019-05-16T06:25:13.199Z,1016.95
2019-05-16T06:26:12.306Z,1016.94
2019-05-16T06:27:09.822Z,1016.95
2019-05-16T06:28:10.438Z,1016.92
2019-05-16T06:29:10.377Z,1017.00
2019-05-16T06:30:11.118Z,1016.94
2019-05-16T06:31:13.078Z,1017.01
2019-05-16T06:32:10.283Z,1016.99
2019-05-16T06:33:10.236Z,1016.93
2019-05-16T06:34:14.468Z,1016.94
2019-05-16T06:35:09.765Z,1016.96
2019-05-16T06:36:10.831Z,1016.90
2019-05-16T06:37:09.842Z,1016.87
2019-05-16T06:38:09.947Z,1016.92
2019-05-16T06:39:11.208Z,1016.93
2019-05-16T06:40:08.140Z,1016.89
2019-05-16T06:41:10.204Z,1016.90
2019-05-16T06:42:09.820Z,1016.97
2019-05-16T06:43:08.135Z,1016.95
2019-05-16T06:44:10.520Z,1016.93
2019-05-16T06:45:10.372Z,1016.96
2019-05-16T06:46:08.073Z,1016.96
2019-05-16T06:47:16.872Z,1016.89
2019-05-16T06:48:10.015Z,1016.85
2019-05-16T06:49:10.209Z,1016.82
2019-05-16T06:50:08.039Z,1016.81
2019-05-16T06:51:10.573Z,1016.87
2019-05-16T06:52:10.277Z,1016.81
2019-05-16T06:53:10.251Z,1016.86
2019-05-16T06:54:09.931Z,1016.85
2019-05-16T06:55:10.166Z,1016.83
2019-05-16T06:56:10.330Z,1016.87
2019-05-16T06:57:10.394Z,1016.84
2019-05-16T06:58:10.406Z,1016.88
2019-05-16T06:59:10.170Z,1016.93
2019-05-16T07:00:07.924Z,1016.93
2019-05-16T07:01:10.359Z,1016.87
2019-05-16T07:02:07.917Z,1016.94
2019-05-16T07:03:10.241Z,1016.93
2019-05-16T07:04:10.230Z,1016.90
2019-05-16T07:05:10.031Z,1016.91
2019-05-16T07:06:11.033Z,1016.89
2019-05-16T07:07:11.959Z,1016.86
2019-05-16T07:08:07.899Z,1016.87
2019-05-16T07:09:10.319Z,1016.90
2019-05-16T07:10:09.769Z,1016.86
2019-05-16T07:11:07.803Z,1016.93
2019-05-16T07:12:07.816Z,1016.89
2019-05-16T07:13:10.227Z,1016.83
2019-05-16T07:14:10.344Z,1016.82
2019-05-16T07:15:11.904Z,1016.84
2019-05-16T07:16:09.748Z,1016.79
2019-05-16T07:17:09.712Z,1016.80
2019-05-16T07:18:10.800Z,1016.78
2019-05-16T07:19:10.500Z,1016.76
2019-05-16T07:20:10.197Z,1016.79
2019-05-16T07:21:07.700Z,1016.81
2019-05-16T07:22:07.790Z,1016.78
2019-05-16T07:23:09.943Z,1016.78
2019-05-16T07:24:07.702Z,1016.75
2019-05-16T07:25:07.662Z,1016.77
2019-05-16T07:26:09.721Z,1016.75
2019-05-16T07:27:11.552Z,1016.69
2019-05-16T07:28:10.092Z,1016.68
2019-05-16T07:29:07.599Z,1016.60
2019-05-16T07:30:07.639Z,1016.68
2019-05-16T07:31:17.647Z,1016.65
2019-05-16T07:32:08.566Z,1016.66
2019-05-16T07:33:09.684Z,1016.64
2019-05-16T07:34:10.173Z,1016.64
2019-05-16T07:35:09.624Z,1016.63
2019-05-16T07:36:09.746Z,1016.61
2019-05-16T07:37:07.583Z,1016.65
2019-05-16T07:38:07.513Z,1016.68
2019-05-16T07:39:07.596Z,1016.63
2019-05-16T07:40:19.471Z,1016.67
2019-05-16T07:41:11.047Z,1016.64
2019-05-16T07:42:11.053Z,1016.60
2019-05-16T07:43:07.457Z,1016.65
2019-05-16T07:44:10.570Z,1016.63
2019-05-16T07:45:10.001Z,1016.59
2019-05-16T07:46:07.444Z,1016.59
2019-05-16T07:47:07.422Z,1016.64
2019-05-16T07:48:07.418Z,1016.58
2019-05-16T07:49:07.381Z,1016.58
2019-05-16T07:50:07.469Z,1016.62
2019-05-16T07:51:10.098Z,1016.60
2019-05-16T07:52:16.389Z,1016.59
2019-05-16T07:53:07.350Z,1016.61
2019-05-16T07:54:22.873Z,1016.60
2019-05-16T07:55:07.312Z,1016.61
2019-05-16T07:56:10.457Z,1016.60
2019-05-16T07:57:18.545Z,1016.58
2019-05-16T07:58:10.227Z,1016.56
2019-05-16T07:59:07.328Z,1016.51
2019-05-16T08:00:09.518Z,1016.48
2019-05-16T08:01:10.218Z,1016.46
2019-05-16T08:02:10.795Z,1016.40
2019-05-16T08:03:07.278Z,1016.41
2019-05-16T08:04:07.220Z,1016.39
2019-05-16T08:05:07.263Z,1016.35
2019-05-16T08:06:07.198Z,1016.40
2019-05-16T08:07:07.278Z,1016.34
2019-05-16T08:08:07.188Z,1016.32
2019-05-16T08:09:07.979Z,1016.24
2019-05-16T08:10:07.155Z,1016.37
2019-05-16T08:11:07.200Z,1016.32
2019-05-16T08:12:07.128Z,1016.31
2019-05-16T08:13:07.243Z,1016.30
2019-05-16T08:14:07.117Z,1016.25
2019-05-16T08:15:07.130Z,1016.22
2019-05-16T08:16:09.406Z,1016.22
2019-05-16T08:17:07.139Z,1016.21
2019-05-16T08:18:07.062Z,1016.23
2019-05-16T08:19:07.079Z,1016.23
2019-05-16T08:20:07.038Z,1016.22
2019-05-16T08:21:07.067Z,1016.21
2019-05-16T08:22:07.027Z,1016.22
2019-05-16T08:23:07.110Z,1016.19
2019-05-16T08:24:08.343Z,1016.17
2019-05-16T08:25:10.478Z,1016.19
2019-05-16T08:26:06.978Z,1016.16
2019-05-16T08:27:07.005Z,1016.07
2019-05-16T08:28:06.956Z,1016.12
2019-05-16T08:29:07.045Z,1016.10
2019-05-16T08:30:06.931Z,1016.09
2019-05-16T08:31:06.928Z,1015.96
2019-05-16T08:32:06.907Z,1016.04
2019-05-16T08:33:06.942Z,1016.06
2019-05-16T08:34:06.900Z,1016.03
2019-05-16T08:35:10.917Z,1016.03
2019-05-16T08:37:30.664Z,1016.05
2019-05-16T08:38:07.898Z,1016.07
2019-05-16T08:39:06.851Z,1016.00
2019-05-16T08:40:06.887Z,1015.91
2019-05-16T08:41:12.831Z,1015.92
2019-05-16T08:42:08.726Z,1015.99
2019-05-16T08:43:07.831Z,1015.93
2019-05-16T08:44:06.789Z,1016.01
2019-05-16T08:45:06.820Z,1015.99
2019-05-16T08:46:06.753Z,1015.95
2019-05-16T08:47:06.846Z,1015.90
2019-05-16T08:48:06.729Z,1015.90
2019-05-16T08:49:06.773Z,1015.88
2019-05-16T08:50:13.734Z,1015.89
2019-05-16T08:51:07.699Z,1015.92
2019-05-16T08:52:06.686Z,1015.95
2019-05-16T08:53:06.772Z,1015.90
2019-05-16T08:54:06.689Z,1015.86
2019-05-16T08:55:06.683Z,1015.95
2019-05-16T08:56:06.642Z,1015.83
2019-05-16T08:57:24.379Z,1015.85
2019-05-16T08:58:13.259Z,1015.82
2019-05-16T08:59:07.705Z,1015.83
2019-05-16T09:00:06.607Z,1015.83
2019-05-16T09:01:06.621Z,1015.80
2019-05-16T09:02:06.580Z,1015.74
2019-05-16T09:03:06.637Z,1015.82
2019-05-16T09:04:06.607Z,1015.81
2019-05-16T09:05:13.058Z,1015.70
2019-05-16T09:06:11.531Z,1015.75
2019-05-16T09:07:06.565Z,1015.79
2019-05-16T09:08:06.514Z,1015.74
2019-05-16T09:09:22.267Z,1015.73
2019-05-16T09:10:28.429Z,1016.06
2019-05-16T09:10:40.811Z,1015.75
2019-05-16T09:11:27.079Z,1015.72
2019-05-16T09:12:07.907Z,1015.68
2019-05-16T09:13:07.235Z,1015.64
2019-05-16T09:14:07.949Z,1015.64
2019-05-16T09:15:09.696Z,1015.66
2019-05-16T09:16:07.775Z,1015.69
2019-05-16T09:17:07.457Z,1015.66
2019-05-16T09:18:07.555Z,1015.68
2019-05-16T09:19:07.733Z,1015.68
2019-05-16T09:20:07.381Z,1015.70
2019-05-16T09:21:07.315Z,1015.70
2019-05-16T09:22:13.493Z,1015.71
2019-05-16T09:23:07.554Z,1015.70
2019-05-16T09:24:06.868Z,1015.67
2019-05-16T09:25:08.013Z,1015.69
2019-05-16T09:26:07.639Z,1015.66
2019-05-16T09:27:12.213Z,1015.60
2019-05-16T09:28:07.593Z,1015.58
2019-05-16T09:29:08.298Z,1015.73
2019-05-16T09:30:07.197Z,1015.62
2019-05-16T09:31:07.127Z,1015.57
2019-05-16T09:32:12.775Z,1015.60
2019-05-16T09:33:07.400Z,1015.55
2019-05-16T09:34:07.425Z,1015.54
2019-05-16T09:35:07.848Z,1015.55
2019-05-16T09:36:08.031Z,1015.52
2019-05-16T09:37:08.505Z,1015.48
2019-05-16T09:38:07.198Z,1015.57
2019-05-16T09:39:08.340Z,1015.52
2019-05-16T09:40:06.567Z,1015.48
2019-05-16T09:41:07.908Z,1015.54
2019-05-16T09:42:08.254Z,1015.54
2019-05-16T09:43:07.586Z,1015.59
2019-05-16T09:44:08.703Z,1015.54
2019-05-16T09:45:07.324Z,1015.55
2019-05-16T09:46:07.830Z,1015.59
2019-05-16T09:47:07.592Z,1015.53
2019-05-16T09:48:08.120Z,1015.53
2019-05-16T09:49:16.960Z,1015.56
2019-05-16T09:50:07.065Z,1015.48
2019-05-16T09:51:06.767Z,1015.51
2019-05-16T09:52:07.438Z,1015.47
2019-05-16T09:53:07.210Z,1015.46
2019-05-16T09:54:07.189Z,1015.47
2019-05-16T09:55:07.115Z,1015.45
2019-05-16T09:56:07.028Z,1015.44
2019-05-16T09:57:06.567Z,1015.39
2019-05-16T09:58:07.392Z,1015.43
2019-05-16T09:59:06.917Z,1015.40
2019-05-16T10:00:06.784Z,1015.34
2019-05-16T10:01:05.961Z,1015.30
2019-05-16T10:02:07.384Z,1015.31
2019-05-16T10:03:07.138Z,1015.29
2019-05-16T10:04:06.681Z,1015.30
2019-05-16T10:05:13.246Z,1015.26
2019-05-16T10:06:08.078Z,1015.26
2019-05-16T10:08:17.079Z,1015.21
2019-05-16T10:09:17.235Z,1015.28
2019-05-16T10:10:16.904Z,1015.27
2019-05-16T10:11:17.860Z,1015.25
2019-05-16T10:12:16.355Z,1015.28
2019-05-16T10:13:14.569Z,1015.15
2019-05-16T10:14:14.597Z,1015.09
2019-05-16T10:15:14.543Z,1015.20
2019-05-16T10:16:16.686Z,1015.13
2019-05-16T10:17:14.520Z,1015.10
2019-05-16T10:18:16.654Z,1015.18
2019-05-16T10:19:16.805Z,1015.07
2019-05-16T10:20:16.734Z,1015.10
2019-05-16T10:21:17.886Z,1015.07
2019-05-16T10:22:17.045Z,1015.09
2019-05-16T10:23:17.555Z,1015.12
2019-05-16T10:24:14.468Z,1015.14
2019-05-16T10:25:19.029Z,1015.04
2019-05-16T10:26:17.208Z,1015.07
2019-05-16T10:27:14.419Z,1015.08
2019-05-16T10:28:14.491Z,1015.02
2019-05-16T10:29:14.392Z,1014.98
2019-05-16T10:30:14.403Z,1015.04
2019-05-16T10:31:14.391Z,1015.04
2019-05-16T10:32:16.775Z,1015.05
2019-05-16T10:33:18.566Z,1015.08
2019-05-16T10:34:14.430Z,1014.98
2019-05-16T10:35:14.321Z,1015.01
2019-05-16T10:36:17.172Z,1015.04
2019-05-16T10:37:17.614Z,1015.02
2019-05-16T10:38:14.312Z,1015.02
2019-05-16T10:39:14.277Z,1015.04
2019-05-16T10:40:17.672Z,1015.01
2019-05-16T10:41:14.276Z,1015.05
2019-05-16T10:42:27.258Z,1015.05
2019-05-16T10:43:17.244Z,1014.99
2019-05-16T10:44:17.215Z,1015.03
2019-05-16T10:45:16.484Z,1014.96
2019-05-16T10:46:14.251Z,1014.97
2019-05-16T10:47:17.041Z,1014.99
2019-05-16T10:48:14.221Z,1014.97
2019-05-16T10:49:16.505Z,1014.87
2019-05-16T10:50:16.484Z,1014.90
2019-05-16T10:51:14.165Z,1014.85
2019-05-16T10:52:16.533Z,1014.84
2019-05-16T10:53:42.374Z,1014.81
2019-05-16T10:54:18.104Z,1014.83
2019-05-16T10:55:14.125Z,1014.82
2019-05-16T10:56:14.270Z,1014.77
2019-05-16T10:57:14.129Z,1014.78
2019-05-16T10:58:32.470Z,1014.78
2019-05-16T10:59:53.248Z,1014.81
2019-05-16T11:00:34.917Z,1014.84
2019-05-16T11:01:26.615Z,1014.84
2019-05-16T11:02:16.702Z,1014.84
2019-05-16T11:03:14.134Z,1014.68
2019-05-16T11:04:26.181Z,1014.76
2019-05-16T11:05:29.363Z,1014.81
2019-05-16T11:06:25.277Z,1014.77
2019-05-16T11:07:14.974Z,1014.78
2019-05-16T11:08:14.046Z,1014.69
2019-05-16T11:09:13.948Z,1014.63
2019-05-16T11:10:13.965Z,1014.66
2019-05-16T11:11:13.938Z,1014.68
2019-05-16T11:12:13.992Z,1014.64
2019-05-16T11:13:13.908Z,1014.65
2019-05-16T11:14:13.987Z,1014.60
2019-05-16T11:15:13.881Z,1014.57
2019-05-16T11:16:13.910Z,1014.59
2019-05-16T11:17:14.218Z,1014.60
2019-05-16T11:18:13.945Z,1014.59
2019-05-16T11:19:20.252Z,1014.57
2019-05-16T11:20:19.648Z,1014.59
2019-05-16T11:21:19.004Z,1014.60
2019-05-16T11:22:13.817Z,1014.55
2019-05-16T11:23:13.805Z,1014.56
2019-05-16T11:24:13.819Z,1014.57
2019-05-16T11:25:24.696Z,1014.62
2019-05-16T11:26:14.762Z,1014.60
2019-05-16T11:27:13.798Z,1014.56
2019-05-16T11:28:13.743Z,1014.53
2019-05-16T11:29:13.787Z,1014.58
2019-05-16T11:30:17.803Z,1014.57
2019-05-16T11:31:13.813Z,1014.60
2019-05-16T11:32:13.716Z,1014.65
2019-05-16T11:33:13.709Z,1014.77
2019-05-16T11:34:13.673Z,1014.69
2019-05-16T11:35:13.725Z,1014.62
2019-05-16T11:36:13.658Z,1014.65
2019-05-16T11:37:13.767Z,1014.65
2019-05-16T11:38:13.636Z,1014.68
2019-05-16T11:39:13.648Z,1014.61
2019-05-16T11:40:13.614Z,1014.64
2019-05-16T11:41:13.663Z,1014.61
2019-05-16T11:42:13.608Z,1014.61
2019-05-16T11:43:18.315Z,1014.56
2019-05-16T11:44:17.411Z,1014.59
2019-05-16T11:45:13.589Z,1014.61
2019-05-16T11:46:13.542Z,1014.60
2019-05-16T11:47:13.636Z,1014.66
2019-05-16T11:48:13.522Z,1014.63
2019-05-16T11:49:13.611Z,1014.65
2019-05-16T11:50:13.495Z,1014.62
2019-05-16T11:51:13.522Z,1014.61
2019-05-16T11:52:13.493Z,1014.59
2019-05-16T11:53:13.542Z,1014.63
2019-05-16T11:54:13.454Z,1014.61
2019-05-16T11:55:13.556Z,1014.61
2019-05-16T11:56:13.436Z,1014.66
2019-05-16T11:57:13.494Z,1014.58
2019-05-16T11:58:13.411Z,1014.62
2019-05-16T11:59:13.481Z,1014.59
2019-05-16T12:00:13.384Z,1014.58
2019-05-16T12:01:20.350Z,1014.56
2019-05-16T12:02:13.376Z,1014.52
2019-05-16T12:03:28.508Z,1014.57
2019-05-16T12:04:13.346Z,1014.54
2019-05-16T12:05:13.418Z,1014.49
2019-05-16T12:06:13.318Z,1014.52